Time;durP1;ratioP1;P1;durP2;ratioP2;P2;SDS_P1;SDS_P2;PMS_P1;PMS_P2;Temp;Humidity;BMP_temperature;BMP_pressure;BME280_temperature;BME280_humidity;BME280_pressure;Samples;Min_cycle;Max_cycle;Signal;HPM_P1;HPM_P2
2023/01/31 00:01:37;;;;;;;0.20;0.20;;;;;;;;;;5072220;28;20264;-67
2023/01/31 00:04:04;;;;;;;0.20;0.20;;;;;;;;;;5082951;28;20210;-67
2023/01/31 00:06:35;;;;;;;0.20;0.20;;;;;;;;;;5072319;28;20426;-67
2023/01/31 00:09:04;;;;;;;0.20;0.20;;;;;;;;;;5082585;28;20207;-67
2023/01/31 00:11:30;;;;;;;0.20;0.20;;;;;;;;;;5072134;28;20258;-67
2023/01/31 00:13:57;;;;;;;0.20;0.20;;;;;;;;;;5082827;28;20271;-67
2023/01/31 00:16:23;;;;;;;0.20;0.20;;;;;;;;;;5072075;28;20305;-66
2023/01/31 00:18:50;;;;;;;0.20;0.20;;;;;;;;;;5082601;28;20293;-66
2023/01/31 00:21:18;;;;;;;0.20;0.20;;;;;;;;;;5072069;28;20237;-66
2023/01/31 00:23:45;;;;;;;0.20;0.20;;;;;;;;;;5082796;28;20206;-66
2023/01/31 00:26:14;;;;;;;0.20;0.20;;;;;;;;;;5071986;28;20250;-66
2023/01/31 00:28:41;;;;;;;0.20;0.20;;;;;;;;;;5082381;28;20210;-67
2023/01/31 00:31:07;;;;;;;0.20;0.20;;;;;;;;;;5072019;28;20316;-67
2023/01/31 00:33:34;;;;;;;0.20;0.20;;;;;;;;;;5082629;28;20274;-66
2023/01/31 00:36:06;;;;;;;0.20;0.20;;;;;;;;;;5072085;28;20242;-67
2023/01/31 00:38:33;;;;;;;0.20;0.20;;;;;;;;;;5082511;28;20227;-67
2023/01/31 00:41:00;;;;;;;0.20;0.20;;;;;;;;;;5072197;28;20307;-65
2023/01/31 00:43:27;;;;;;;0.20;0.20;;;;;;;;;;5082424;28;20210;-67
2023/01/31 00:45:54;;;;;;;0.20;0.20;;;;;;;;;;5072295;28;20239;-67
2023/01/31 00:48:20;;;;;;;0.20;0.20;;;;;;;;;;5085292;28;20270;-67
2023/01/31 00:50:46;;;;;;;0.20;0.20;;;;;;;;;;5076075;28;20241;-66
2023/01/31 00:53:13;;;;;;;0.20;0.20;;;;;;;;;;5085988;28;20391;-67
2023/01/31 00:55:39;;;;;;;0.93;0.93;;;;;;;;;;5075663;28;20268;-67
2023/01/31 00:58:05;;;;;;;0.20;0.20;;;;;;;;;;5085755;28;20558;-66
2023/01/31 01:00:33;;;;;;;0.10;0.10;;;;;;;;;;5075799;28;20459;-67
2023/01/31 01:03:00;;;;;;;0.20;0.20;;;;;;;;;;5085693;28;20217;-67
2023/01/31 01:05:26;;;;;;;0.20;0.20;;;;;;;;;;5075940;28;20214;-67
2023/01/31 01:07:52;;;;;;;0.20;0.20;;;;;;;;;;5085433;28;20273;-67
2023/01/31 01:10:19;;;;;;;0.20;0.20;;;;;;;;;;5075688;28;20240;-67
2023/01/31 01:12:45;;;;;;;0.20;0.20;;;;;;;;;;5085361;28;20281;-66
2023/01/31 01:15:11;;;;;;;0.20;0.20;;;;;;;;;;5075640;28;20213;-67
2023/01/31 01:17:39;;;;;;;0.20;0.20;;;;;;;;;;5085053;28;20270;-67
2023/01/31 01:20:07;;;;;;;0.20;0.20;;;;;;;;;;5086199;28;20331;-67
2023/01/31 01:22:35;;;;;;;0.20;0.20;;;;;;;;;;5057873;28;20205;-67
2023/01/31 01:25:01;;;;;;;0.20;0.20;;;;;;;;;;5086101;28;20271;-66
2023/01/31 01:27:28;;;;;;;0.20;0.20;;;;;;;;;;5074435;28;20245;-66
2023/01/31 01:29:54;;;;;;;0.20;0.20;;;;;;;;;;5085799;28;20201;-67
2023/01/31 01:32:20;;;;;;;0.20;0.20;;;;;;;;;;5074363;28;20261;-67
2023/01/31 01:34:48;;;;;;;0.20;0.20;;;;;;;;;;5085697;28;20206;-66
2023/01/31 01:37:18;;;;;;;0.20;0.20;;;;;;;;;;5074328;28;20317;-66
2023/01/31 01:39:45;;;;;;;0.20;0.20;;;;;;;;;;5085503;28;20227;-66
2023/01/31 01:42:15;;;;;;;0.20;0.20;;;;;;;;;;5074069;28;20501;-66
2023/01/31 01:44:47;;;;;;;0.20;0.20;;;;;;;;;;5085789;28;20216;-66
2023/01/31 01:47:33;;;;;;;0.20;0.20;;;;;;;;;;5074146;28;20650;-66
2023/01/31 01:50:03;;;;;;;0.20;0.20;;;;;;;;;;5085781;28;20198;-66
2023/01/31 01:52:32;;;;;;;0.20;0.20;;;;;;;;;;5074154;28;20245;-66
2023/01/31 01:55:03;;;;;;;0.20;0.20;;;;;;;;;;5085764;28;20274;-66
2023/01/31 01:57:31;;;;;;;0.20;0.20;;;;;;;;;;5074142;28;20241;-66
2023/01/31 02:00:08;;;;;;;0.20;0.20;;;;;;;;;;5084581;28;20230;-66
2023/01/31 02:02:35;;;;;;;0.20;0.20;;;;;;;;;;5057204;28;20202;-66
2023/01/31 02:05:04;;;;;;;0.20;0.20;;;;;;;;;;5085217;28;20273;-67
2023/01/31 02:07:30;;;;;;;0.20;0.20;;;;;;;;;;5073883;28;20495;-66
2023/01/31 02:10:00;;;;;;;0.20;0.20;;;;;;;;;;5085024;28;20202;-67
2023/01/31 02:12:26;;;;;;;0.20;0.20;;;;;;;;;;5073620;28;20260;-66
2023/01/31 02:14:53;;;;;;;0.20;0.20;;;;;;;;;;5084985;28;20244;-67
2023/01/31 02:17:20;;;;;;;0.20;0.20;;;;;;;;;;5073703;28;20254;-66
2023/01/31 02:19:52;;;;;;;0.20;0.20;;;;;;;;;;5084697;28;20314;-66
2023/01/31 02:22:23;;;;;;;0.20;0.20;;;;;;;;;;5073847;28;20312;-66
2023/01/31 02:25:10;;;;;;;0.20;0.20;;;;;;;;;;5085201;28;20269;-66
2023/01/31 02:27:58;;;;;;;0.20;0.20;;;;;;;;;;5056823;28;20297;-66
2023/01/31 02:30:34;;;;;;;0.20;0.20;;;;;;;;;;5074134;28;20196;-68
2023/01/31 02:33:05;;;;;;;0.20;0.20;;;;;;;;;;5083926;28;20212;-66
2023/01/31 02:35:38;;;;;;;0.20;0.20;;;;;;;;;;5074099;28;20258;-66
2023/01/31 02:38:08;;;;;;;0.20;0.20;;;;;;;;;;5084027;28;20278;-66
2023/01/31 02:40:38;;;;;;;0.20;0.20;;;;;;;;;;5074169;28;20276;-66
2023/01/31 02:43:08;;;;;;;0.20;0.20;;;;;;;;;;5083823;28;20289;-66
2023/01/31 02:45:36;;;;;;;0.20;0.20;;;;;;;;;;5074106;28;20260;-66
2023/01/31 02:48:07;;;;;;;0.20;0.20;;;;;;;;;;5083695;28;20391;-66
2023/01/31 02:50:36;;;;;;;0.20;0.20;;;;;;;;;;5074024;28;20241;-66
2023/01/31 02:53:05;;;;;;;0.20;0.20;;;;;;;;;;5083659;28;20203;-65
2023/01/31 02:58:18;;;;;;;0.20;0.20;;;;;;;;;;5083687;28;20505;-66
2023/01/31 03:00:46;;;;;;;0.20;0.20;;;;;;;;;;5073475;28;20652;-66
2023/01/31 03:03:19;;;;;;;2.10;2.10;;;;;;;;;;5083639;28;20280;-66
2023/01/31 03:05:56;;;;;;;0.20;0.20;;;;;;;;;;5073458;28;20277;-66
2023/01/31 03:08:22;;;;;;;0.20;0.20;;;;;;;;;;5083596;28;20435;-66
2023/01/31 03:10:58;;;;;;;0.20;0.20;;;;;;;;;;5072348;28;20301;-66
2023/01/31 03:13:33;;;;;;;0.20;0.20;;;;;;;;;;5083670;28;20244;-67
2023/01/31 03:18:50;;;;;;;0.20;0.20;;;;;;;;;;5083723;28;20232;-66
2023/01/31 03:21:19;;;;;;;0.20;0.20;;;;;;;;;;5073017;28;20309;-66
2023/01/31 03:23:48;;;;;;;0.20;0.20;;;;;;;;;;5083484;28;20257;-66
2023/01/31 03:26:15;;;;;;;0.20;0.20;;;;;;;;;;5072943;28;20251;-66
2023/01/31 03:28:42;;;;;;;0.20;0.20;;;;;;;;;;5083407;28;20273;-66
2023/01/31 03:31:10;;;;;;;0.20;0.20;;;;;;;;;;5072577;28;20251;-66
2023/01/31 03:33:38;;;;;;;0.20;0.20;;;;;;;;;;5083330;28;20241;-65
2023/01/31 03:36:09;;;;;;;0.20;0.20;;;;;;;;;;5072983;28;20238;-67
2023/01/31 03:38:37;;;;;;;0.17;0.17;;;;;;;;;;5083271;28;20216;-67
2023/01/31 03:41:06;;;;;;;0.20;0.20;;;;;;;;;;5072484;28;20261;-66
2023/01/31 03:43:36;;;;;;;0.20;0.20;;;;;;;;;;5083141;28;20245;-67
2023/01/31 03:46:07;;;;;;;0.20;0.20;;;;;;;;;;5072736;28;20246;-67
2023/01/31 03:48:36;;;;;;;0.20;0.20;;;;;;;;;;5083237;28;20263;-67
2023/01/31 03:51:04;;;;;;;0.20;0.20;;;;;;;;;;5072571;28;20242;-67
2023/01/31 03:53:33;;;;;;;0.20;0.20;;;;;;;;;;5083013;28;20242;-67
2023/01/31 03:56:02;;;;;;;0.20;0.20;;;;;;;;;;5072674;28;20258;-67
2023/01/31 03:58:30;;;;;;;0.20;0.20;;;;;;;;;;5082812;28;20240;-66
2023/01/31 04:00:58;;;;;;;0.20;0.20;;;;;;;;;;5072596;28;20321;-66
2023/01/31 04:03:27;;;;;;;0.20;0.20;;;;;;;;;;5083019;28;20310;-67
2023/01/31 04:05:54;;;;;;;0.20;0.20;;;;;;;;;;5072572;28;20252;-67
2023/01/31 04:08:20;;;;;;;0.20;0.20;;;;;;;;;;5082908;28;20206;-66
2023/01/31 04:10:49;;;;;;;0.20;0.20;;;;;;;;;;5072615;28;20493;-66
2023/01/31 04:13:15;;;;;;;0.20;0.20;;;;;;;;;;5082561;28;20284;-66
2023/01/31 04:15:42;;;;;;;0.20;0.20;;;;;;;;;;5072687;28;20622;-66
2023/01/31 04:18:09;;;;;;;0.20;0.20;;;;;;;;;;5082578;28;20206;-66
2023/01/31 04:20:35;;;;;;;9.33;2.90;;;;;;;;;;5072505;28;20257;-66
2023/01/31 04:23:03;;;;;;;0.53;0.40;;;;;;;;;;5085161;28;20265;-66
2023/01/31 04:25:29;;;;;;;0.20;0.20;;;;;;;;;;5076924;28;20264;-66
2023/01/31 04:27:57;;;;;;;0.20;0.20;;;;;;;;;;5086429;28;20204;-66
2023/01/31 04:30:23;;;;;;;0.20;0.20;;;;;;;;;;5076534;28;20277;-66
2023/01/31 04:32:50;;;;;;;0.20;0.20;;;;;;;;;;5085992;28;20292;-66
2023/01/31 04:35:16;;;;;;;0.20;0.20;;;;;;;;;;5076554;28;20234;-66
2023/01/31 04:37:42;;;;;;;0.20;0.20;;;;;;;;;;5085911;28;20206;-65
2023/01/31 04:40:12;;;;;;;0.30;0.30;;;;;;;;;;5076417;28;20261;-66
2023/01/31 04:42:39;;;;;;;0.20;0.20;;;;;;;;;;5085822;28;20271;-67
2023/01/31 04:45:07;;;;;;;0.20;0.20;;;;;;;;;;5086834;28;20265;-67
2023/01/31 04:47:33;;;;;;;0.20;0.20;;;;;;;;;;5058656;28;20281;-68
2023/01/31 04:50:00;;;;;;;0.20;0.20;;;;;;;;;;5086694;28;20237;-67
2023/01/31 04:52:26;;;;;;;0.20;0.20;;;;;;;;;;5075325;28;20265;-67
2023/01/31 04:54:53;;;;;;;0.20;0.20;;;;;;;;;;5086603;28;20273;-67
2023/01/31 04:57:19;;;;;;;0.20;0.20;;;;;;;;;;5075119;28;20634;-67
2023/01/31 04:59:45;;;;;;;0.20;0.20;;;;;;;;;;5086393;28;20232;-67
2023/01/31 05:02:13;;;;;;;0.20;0.20;;;;;;;;;;5075024;28;20456;-67
2023/01/31 05:04:40;;;;;;;0.20;0.20;;;;;;;;;;5086361;28;20212;-66
2023/01/31 05:07:06;;;;;;;0.20;0.20;;;;;;;;;;5074981;28;20241;-66
2023/01/31 05:09:33;;;;;;;0.30;0.30;;;;;;;;;;5086211;28;20300;-67
2023/01/31 05:11:59;;;;;;;0.20;0.20;;;;;;;;;;5074926;28;20251;-67
2023/01/31 05:14:26;;;;;;;0.20;0.20;;;;;;;;;;5086342;28;20234;-67
2023/01/31 05:16:52;;;;;;;0.20;0.20;;;;;;;;;;5074745;28;20245;-66
2023/01/31 05:19:20;;;;;;;0.20;0.20;;;;;;;;;;5086197;28;20212;-67
2023/01/31 05:21:57;;;;;;;0.20;0.20;;;;;;;;;;5074708;28;20241;-67
2023/01/31 05:24:24;;;;;;;0.20;0.20;;;;;;;;;;5085811;28;20263;-67
2023/01/31 05:26:55;;;;;;;0.30;0.30;;;;;;;;;;5074717;28;20246;-66
2023/01/31 05:29:22;;;;;;;0.20;0.20;;;;;;;;;;5086121;28;20244;-66
2023/01/31 05:31:50;;;;;;;0.20;0.20;;;;;;;;;;5074492;28;20316;-67
2023/01/31 05:34:16;;;;;;;0.67;0.67;;;;;;;;;;5084670;28;20239;-66
2023/01/31 05:36:44;;;;;;;0.20;0.20;;;;;;;;;;5074594;28;20268;-66
2023/01/31 05:39:11;;;;;;;0.20;0.20;;;;;;;;;;5085609;28;20276;-66
2023/01/31 05:41:37;;;;;;;0.20;0.20;;;;;;;;;;5074648;28;20258;-66
2023/01/31 05:44:03;;;;;;;0.20;0.20;;;;;;;;;;5085688;28;20234;-66
2023/01/31 05:46:30;;;;;;;0.20;0.20;;;;;;;;;;5074395;28;20241;-66
2023/01/31 05:48:56;;;;;;;0.20;0.20;;;;;;;;;;5085253;28;20274;-66
2023/01/31 05:51:23;;;;;;;0.30;0.30;;;;;;;;;;5074505;28;20237;-66
2023/01/31 05:53:50;;;;;;;0.20;0.20;;;;;;;;;;5085307;28;20216;-66
2023/01/31 05:56:17;;;;;;;0.20;0.20;;;;;;;;;;5074468;28;20253;-66
2023/01/31 05:58:47;;;;;;;0.20;0.20;;;;;;;;;;5085309;28;20494;-66
2023/01/31 06:01:13;;;;;;;0.27;0.27;;;;;;;;;;5074456;28;20312;-66
2023/01/31 06:03:39;;;;;;;0.20;0.20;;;;;;;;;;5085063;28;20276;-66
2023/01/31 06:06:06;;;;;;;0.20;0.20;;;;;;;;;;5074506;28;20307;-66
2023/01/31 06:08:32;;;;;;;0.20;0.20;;;;;;;;;;5084787;28;20227;-66
2023/01/31 06:11:03;;;;;;;0.20;0.20;;;;;;;;;;5074370;28;20283;-67
2023/01/31 06:13:30;;;;;;;0.20;0.20;;;;;;;;;;5084696;28;20386;-67
2023/01/31 06:15:56;;;;;;;0.20;0.20;;;;;;;;;;5074417;28;20471;-66
2023/01/31 06:18:23;;;;;;;0.20;0.20;;;;;;;;;;5084421;28;20396;-66
2023/01/31 06:20:50;;;;;;;0.20;0.20;;;;;;;;;;5074326;28;20241;-66
2023/01/31 06:23:16;;;;;;;0.20;0.20;;;;;;;;;;5084346;28;20238;-66
2023/01/31 06:25:42;;;;;;;0.20;0.20;;;;;;;;;;5074243;28;20304;-66
2023/01/31 06:28:10;;;;;;;0.20;0.20;;;;;;;;;;5083893;28;20214;-66
2023/01/31 06:30:37;;;;;;;0.20;0.20;;;;;;;;;;5074209;28;20357;-66
2023/01/31 06:33:03;;;;;;;0.20;0.20;;;;;;;;;;5084065;28;20508;-66
2023/01/31 06:35:30;;;;;;;0.20;0.20;;;;;;;;;;5074066;28;20261;-66
2023/01/31 06:37:57;;;;;;;0.20;0.20;;;;;;;;;;5083776;28;20414;-66
2023/01/31 06:40:23;;;;;;;0.20;0.20;;;;;;;;;;5074198;28;20288;-66
2023/01/31 06:42:50;;;;;;;0.20;0.20;;;;;;;;;;5083702;28;20207;-66
2023/01/31 06:45:17;;;;;;;0.20;0.20;;;;;;;;;;5073868;28;20212;-66
2023/01/31 06:47:44;;;;;;;0.20;0.20;;;;;;;;;;5083539;28;20408;-65
2023/01/31 06:50:11;;;;;;;0.20;0.20;;;;;;;;;;5073933;28;20452;-66
2023/01/31 06:52:38;;;;;;;0.20;0.20;;;;;;;;;;5083409;28;20232;-66
2023/01/31 06:55:05;;;;;;;0.20;0.20;;;;;;;;;;5084192;28;20272;-66
2023/01/31 06:57:31;;;;;;;0.20;0.20;;;;;;;;;;5072895;28;20268;-65
2023/01/31 06:59:57;;;;;;;0.20;0.20;;;;;;;;;;5084081;28;20273;-65
2023/01/31 07:02:25;;;;;;;0.20;0.20;;;;;;;;;;5072725;28;20265;-66
2023/01/31 07:04:52;;;;;;;0.20;0.20;;;;;;;;;;5083971;28;20206;-66
2023/01/31 07:07:18;;;;;;;0.20;0.20;;;;;;;;;;5072781;28;20242;-65
2023/01/31 07:09:45;;;;;;;0.30;0.30;;;;;;;;;;5084299;28;20249;-65
2023/01/31 07:12:11;;;;;;;0.20;0.20;;;;;;;;;;5072628;28;20249;-65
2023/01/31 07:14:37;;;;;;;0.20;0.20;;;;;;;;;;5084163;28;20454;-65
2023/01/31 07:17:04;;;;;;;0.20;0.20;;;;;;;;;;5072537;28;20624;-65
2023/01/31 07:19:31;;;;;;;0.20;0.20;;;;;;;;;;5084184;28;20572;-65
2023/01/31 07:21:58;;;;;;;0.20;0.20;;;;;;;;;;5072471;28;20261;-66
2023/01/31 07:24:24;;;;;;;0.20;0.20;;;;;;;;;;5083988;28;20204;-65
2023/01/31 07:26:51;;;;;;;0.20;0.20;;;;;;;;;;5072480;28;20261;-65
2023/01/31 07:29:18;;;;;;;0.20;0.20;;;;;;;;;;5083960;28;20238;-65
2023/01/31 07:31:44;;;;;;;0.20;0.20;;;;;;;;;;5072323;28;20255;-65
2023/01/31 07:34:11;;;;;;;0.20;0.20;;;;;;;;;;5083821;28;20213;-65
2023/01/31 07:36:38;;;;;;;0.20;0.20;;;;;;;;;;5072770;28;20254;-69
2023/01/31 07:39:05;;;;;;;0.20;0.20;;;;;;;;;;5083389;28;20210;-66
2023/01/31 07:41:31;;;;;;;0.20;0.20;;;;;;;;;;5072552;28;20242;-67
2023/01/31 07:43:58;;;;;;;0.20;0.20;;;;;;;;;;5083616;28;20210;-67
2023/01/31 07:46:24;;;;;;;0.20;0.20;;;;;;;;;;5072644;28;20252;-67
2023/01/31 07:48:51;;;;;;;0.20;0.20;;;;;;;;;;5083236;28;20321;-67
2023/01/31 07:51:17;;;;;;;0.20;0.20;;;;;;;;;;5072470;28;20253;-67
2023/01/31 07:53:45;;;;;;;0.20;0.20;;;;;;;;;;5083280;28;20505;-67
2023/01/31 07:56:12;;;;;;;0.20;0.20;;;;;;;;;;5072356;28;20257;-66
2023/01/31 07:58:40;;;;;;;0.20;0.20;;;;;;;;;;5082796;28;20206;-67
2023/01/31 08:03:50;;;;;;;0.20;0.20;;;;;;;;;;5083246;28;20205;-66
2023/01/31 08:06:19;;;;;;;0.20;0.20;;;;;;;;;;5072391;28;20269;-67
2023/01/31 08:08:47;;;;;;;0.20;0.20;;;;;;;;;;5083129;28;20470;-66
2023/01/31 08:11:13;;;;;;;0.20;0.20;;;;;;;;;;5072587;28;20236;-67
2023/01/31 08:13:40;;;;;;;0.20;0.20;;;;;;;;;;5082733;28;20213;-68
2023/01/31 08:16:08;;;;;;;0.20;0.20;;;;;;;;;;5072455;28;20456;-68
2023/01/31 08:18:34;;;;;;;0.20;0.20;;;;;;;;;;5082815;28;20205;-67
2023/01/31 08:21:01;;;;;;;0.50;0.50;;;;;;;;;;5072303;28;20237;-67
2023/01/31 08:23:27;;;;;;;0.20;0.20;;;;;;;;;;5082439;28;20277;-66
2023/01/31 08:26:00;;;;;;;0.20;0.20;;;;;;;;;;5072421;28;20245;-67
2023/01/31 08:28:28;;;;;;;0.20;0.20;;;;;;;;;;5082832;28;20387;-67
2023/01/31 08:30:55;;;;;;;0.20;0.20;;;;;;;;;;5072086;28;20246;-67
2023/01/31 08:33:21;;;;;;;0.40;0.40;;;;;;;;;;5082374;28;20209;-67
2023/01/31 08:35:48;;;;;;;0.20;0.20;;;;;;;;;;5072181;28;20270;-68
2023/01/31 08:38:14;;;;;;;0.20;0.20;;;;;;;;;;5082366;28;20234;-68
2023/01/31 08:40:40;;;;;;;0.20;0.20;;;;;;;;;;5072448;28;20242;-68
2023/01/31 08:43:09;;;;;;;0.20;0.20;;;;;;;;;;5082073;28;20242;-68
2023/01/31 08:45:38;;;;;;;0.20;0.20;;;;;;;;;;5072271;28;20240;-69
2023/01/31 08:48:05;;;;;;;0.20;0.20;;;;;;;;;;5082204;28;20193;-69
2023/01/31 08:50:32;;;;;;;0.37;0.37;;;;;;;;;;5072154;28;20251;-69
2023/01/31 08:53:01;;;;;;;0.20;0.20;;;;;;;;;;5082088;28;20206;-68
2023/01/31 08:55:27;;;;;;;0.20;0.20;;;;;;;;;;5072497;28;20266;-68
2023/01/31 08:57:54;;;;;;;0.60;0.37;;;;;;;;;;5082126;28;20194;-69
2023/01/31 09:00:23;;;;;;;0.20;0.20;;;;;;;;;;5072153;28;20212;-69
2023/01/31 09:02:51;;;;;;;0.20;0.20;;;;;;;;;;5081989;28;20256;-69
2023/01/31 09:05:17;;;;;;;0.20;0.20;;;;;;;;;;5072200;28;20278;-69
2023/01/31 09:07:44;;;;;;;0.20;0.20;;;;;;;;;;5081546;28;20273;-69
2023/01/31 09:10:11;;;;;;;0.20;0.20;;;;;;;;;;5074966;28;20234;-68
2023/01/31 09:12:47;;;;;;;0.20;0.20;;;;;;;;;;5085393;28;20256;-68
2023/01/31 09:15:18;;;;;;;0.30;0.30;;;;;;;;;;5075852;28;20254;-68
2023/01/31 09:17:46;;;;;;;0.20;0.20;;;;;;;;;;5085028;28;20217;-69
2023/01/31 09:20:12;;;;;;;0.20;0.20;;;;;;;;;;5075981;28;20579;-69
2023/01/31 09:22:38;;;;;;;0.20;0.20;;;;;;;;;;5085157;28;20256;-68
2023/01/31 09:25:05;;;;;;;0.20;0.20;;;;;;;;;;5085964;28;20206;-69
2023/01/31 09:27:32;;;;;;;0.20;0.20;;;;;;;;;;5058108;28;20209;-69
2023/01/31 09:29:58;;;;;;;0.20;0.20;;;;;;;;;;5085736;28;20206;-68
2023/01/31 09:32:25;;;;;;;0.30;0.30;;;;;;;;;;5074223;28;20287;-69
2023/01/31 09:34:53;;;;;;;0.20;0.20;;;;;;;;;;5086201;28;20206;-69
2023/01/31 09:37:19;;;;;;;0.20;0.20;;;;;;;;;;5074445;28;20249;-68
2023/01/31 09:39:45;;;;;;;0.20;0.20;;;;;;;;;;5086134;28;20442;-68
2023/01/31 09:42:17;;;;;;;0.20;0.20;;;;;;;;;;5074459;28;20294;-69
2023/01/31 09:44:46;;;;;;;0.20;0.20;;;;;;;;;;5085655;28;20264;-68
2023/01/31 09:47:20;;;;;;;0.20;0.20;;;;;;;;;;5074539;28;20277;-68
2023/01/31 09:49:48;;;;;;;0.20;0.20;;;;;;;;;;5085533;28;20202;-67
2023/01/31 09:52:16;;;;;;;0.20;0.20;;;;;;;;;;5074306;28;20238;-69
2023/01/31 09:54:42;;;;;;;0.20;0.20;;;;;;;;;;5085463;28;20228;-69
2023/01/31 09:57:15;;;;;;;0.20;0.20;;;;;;;;;;5074293;28;20241;-68
2023/01/31 09:59:46;;;;;;;0.20;0.20;;;;;;;;;;5085354;28;20229;-68
2023/01/31 10:02:26;;;;;;;0.20;0.20;;;;;;;;;;5074049;28;20267;-68
2023/01/31 10:05:04;;;;;;;0.20;0.20;;;;;;;;;;5085662;28;20236;-68
2023/01/31 10:07:33;;;;;;;0.20;0.20;;;;;;;;;;5074069;28;20308;-68
2023/01/31 10:10:03;;;;;;;0.20;0.20;;;;;;;;;;5085476;28;20456;-69
2023/01/31 10:12:33;;;;;;;0.20;0.20;;;;;;;;;;5073878;28;20427;-69
2023/01/31 10:15:02;;;;;;;0.20;0.20;;;;;;;;;;5085374;28;20285;-69
2023/01/31 10:17:32;;;;;;;0.20;0.20;;;;;;;;;;5073709;28;20284;-69
2023/01/31 10:20:01;;;;;;;0.20;0.20;;;;;;;;;;5084589;28;20202;-69
2023/01/31 10:22:32;;;;;;;0.20;0.20;;;;;;;;;;5073715;28;20465;-68
2023/01/31 10:25:04;;;;;;;0.20;0.20;;;;;;;;;;5084986;28;20201;-69
2023/01/31 10:27:36;;;;;;;0.20;0.20;;;;;;;;;;5073640;28;20306;-68
2023/01/31 10:30:03;;;;;;;0.20;0.20;;;;;;;;;;5084797;28;20265;-68
2023/01/31 10:32:32;;;;;;;0.20;0.20;;;;;;;;;;5073086;28;20477;-69
2023/01/31 10:35:00;;;;;;;0.20;0.20;;;;;;;;;;5084983;28;20289;-68
2023/01/31 10:37:30;;;;;;;0.20;0.20;;;;;;;;;;5073376;28;20258;-68
2023/01/31 10:39:58;;;;;;;0.37;0.37;;;;;;;;;;5084812;28;20210;-68
2023/01/31 10:42:30;;;;;;;0.10;0.10;;;;;;;;;;5073298;28;20302;-68
2023/01/31 10:44:59;;;;;;;0.20;0.20;;;;;;;;;;5084512;28;20272;-68
2023/01/31 10:47:30;;;;;;;0.20;0.20;;;;;;;;;;5073199;28;20576;-69
2023/01/31 10:49:57;;;;;;;0.30;0.30;;;;;;;;;;5084759;28;20445;-68
2023/01/31 10:52:41;;;;;;;0.20;0.20;;;;;;;;;;5073217;28;20258;-68
2023/01/31 10:55:17;;;;;;;0.20;0.20;;;;;;;;;;5072593;28;20245;-68
2023/01/31 10:57:45;;;;;;;0.20;0.20;;;;;;;;;;5084690;28;20218;-69
2023/01/31 11:00:13;;;;;;;0.43;0.43;;;;;;;;;;5074053;28;20400;-68
2023/01/31 11:02:40;;;;;;;0.20;0.20;;;;;;;;;;5083014;28;20462;-68
2023/01/31 11:05:07;;;;;;;0.20;0.20;;;;;;;;;;5083025;28;20239;-69
2023/01/31 11:07:34;;;;;;;0.20;0.20;;;;;;;;;;5082695;28;20228;-69
2023/01/31 11:10:19;;;;;;;0.30;0.30;;;;;;;;;;5084018;28;20205;-68
2023/01/31 11:12:54;;;;;;;0.20;0.20;;;;;;;;;;5084060;28;20501;-68
2023/01/31 11:15:22;;;;;;;0.20;0.20;;;;;;;;;;5073456;28;20224;-68
2023/01/31 11:17:49;;;;;;;0.20;0.20;;;;;;;;;;5083065;28;20455;-68
2023/01/31 11:20:21;;;;;;;0.20;0.20;;;;;;;;;;5073642;28;20276;-68
2023/01/31 11:22:47;;;;;;;0.20;0.20;;;;;;;;;;5082875;28;20241;-68
2023/01/31 11:25:17;;;;;;;0.20;0.20;;;;;;;;;;5073555;28;20240;-68
2023/01/31 11:27:44;;;;;;;0.17;0.17;;;;;;;;;;5083010;28;20432;-68
2023/01/31 11:30:20;;;;;;;0.27;0.27;;;;;;;;;;5073458;28;20248;-68
2023/01/31 11:32:47;;;;;;;0.20;0.20;;;;;;;;;;5081666;28;20210;-68
2023/01/31 11:35:22;;;;;;;0.20;0.20;;;;;;;;;;5073276;28;20203;-68
2023/01/31 11:37:49;;;;;;;0.20;0.20;;;;;;;;;;5082602;28;20244;-68
2023/01/31 11:40:20;;;;;;;0.20;0.20;;;;;;;;;;5073341;28;20565;-68
2023/01/31 11:42:54;;;;;;;0.20;0.20;;;;;;;;;;5082671;28;20548;-68
2023/01/31 11:45:27;;;;;;;0.20;0.20;;;;;;;;;;5073343;28;20206;-68
2023/01/31 11:47:54;;;;;;;0.20;0.20;;;;;;;;;;5082889;28;20218;-68
2023/01/31 11:50:21;;;;;;;0.20;0.20;;;;;;;;;;5072911;28;20241;-68
2023/01/31 11:52:53;;;;;;;0.30;0.30;;;;;;;;;;5082618;28;20222;-68
2023/01/31 11:55:20;;;;;;;0.67;0.67;;;;;;;;;;5073018;28;20236;-67
2023/01/31 11:57:46;;;;;;;0.63;0.63;;;;;;;;;;5082705;28;20243;-68
2023/01/31 12:00:21;;;;;;;0.23;0.23;;;;;;;;;;5072858;28;20245;-68
2023/01/31 12:02:51;;;;;;;0.20;0.20;;;;;;;;;;5082194;28;20296;-68
2023/01/31 12:05:18;;;;;;;0.20;0.20;;;;;;;;;;5073214;28;20194;-68
2023/01/31 12:07:46;;;;;;;0.20;0.20;;;;;;;;;;5082574;28;20276;-68
2023/01/31 12:10:39;;;;;;;2.00;1.83;;;;;;;;;;5072670;28;20276;-68
2023/01/31 12:13:12;;;;;;;1.43;0.50;;;;;;;;;;5047409;28;20207;-68
2023/01/31 12:15:45;;;;;;;0.20;0.20;;;;;;;;;;5072548;28;20263;-68
2023/01/31 12:18:13;;;;;;;0.20;0.20;;;;;;;;;;5082712;28;20231;-68
2023/01/31 12:20:44;;;;;;;0.20;0.20;;;;;;;;;;5072725;28;20646;-68
2023/01/31 12:23:16;;;;;;;0.20;0.20;;;;;;;;;;5082343;28;20253;-69
2023/01/31 12:25:51;;;;;;;0.10;0.10;;;;;;;;;;5072637;28;20324;-66
2023/01/31 12:28:24;;;;;;;0.20;0.20;;;;;;;;;;5082327;28;20265;-67
2023/01/31 12:30:56;;;;;;;0.20;0.20;;;;;;;;;;5072051;28;20250;-67
2023/01/31 12:33:34;;;;;;;1.83;1.07;;;;;;;;;;5082782;28;20431;-67
2023/01/31 12:36:09;;;;;;;0.27;0.27;;;;;;;;;;5072370;28;20305;-67
2023/01/31 12:38:56;;;;;;;0.87;0.87;;;;;;;;;;5082703;28;20232;-68
2023/01/31 12:41:29;;;;;;;0.30;0.30;;;;;;;;;;5067160;28;20241;-68
2023/01/31 12:44:09;;;;;;;0.33;0.33;;;;;;;;;;5085222;28;20437;-68
2023/01/31 12:46:39;;;;;;;0.60;0.60;;;;;;;;;;5075745;28;20291;-68
2023/01/31 12:49:21;;;;;;;0.20;0.20;;;;;;;;;;5088376;28;20232;-69
2023/01/31 12:51:58;;;;;;;0.20;0.20;;;;;;;;;;5075874;28;20244;-67
2023/01/31 12:54:31;;;;;;;0.20;0.20;;;;;;;;;;5086444;28;20201;-67
2023/01/31 12:57:13;;;;;;;0.20;0.20;;;;;;;;;;5075362;28;20238;-67
2023/01/31 12:59:44;;;;;;;0.33;0.33;;;;;;;;;;5086496;28;20233;-67
2023/01/31 13:02:14;;;;;;;0.40;0.40;;;;;;;;;;5075101;28;20271;-66
2023/01/31 13:04:45;;;;;;;0.20;0.20;;;;;;;;;;5086616;28;20261;-67
2023/01/31 13:07:14;;;;;;;0.20;0.20;;;;;;;;;;5075185;28;20297;-67
2023/01/31 13:09:41;;;;;;;0.43;0.43;;;;;;;;;;5086684;28;20213;-68
2023/01/31 13:12:09;;;;;;;0.20;0.20;;;;;;;;;;5075116;28;20337;-68
2023/01/31 13:14:37;;;;;;;0.20;0.20;;;;;;;;;;5086429;28;20402;-68
2023/01/31 13:17:04;;;;;;;0.20;0.20;;;;;;;;;;5075012;28;20317;-68
2023/01/31 13:19:33;;;;;;;0.20;0.20;;;;;;;;;;5086367;28;20458;-68
2023/01/31 13:22:02;;;;;;;0.20;0.20;;;;;;;;;;5074682;28;20253;-67
2023/01/31 13:24:31;;;;;;;0.40;0.40;;;;;;;;;;5085881;28;20214;-66
2023/01/31 13:27:00;;;;;;;0.20;0.20;;;;;;;;;;5074893;28;20242;-67
2023/01/31 13:29:29;;;;;;;0.20;0.20;;;;;;;;;;5085907;28;20213;-68
2023/01/31 13:31:59;;;;;;;0.20;0.20;;;;;;;;;;5074280;28;20272;-67
2023/01/31 13:34:28;;;;;;;2.30;2.30;;;;;;;;;;5085770;28;20274;-68
2023/01/31 13:36:57;;;;;;;0.93;0.93;;;;;;;;;;5074646;28;20258;-68
2023/01/31 13:39:28;;;;;;;0.20;0.20;;;;;;;;;;5086042;28;20277;-68
2023/01/31 13:41:54;;;;;;;0.67;0.67;;;;;;;;;;5074238;28;20309;-68
2023/01/31 13:44:20;;;;;;;0.20;0.20;;;;;;;;;;5085833;28;20392;-68
2023/01/31 13:46:50;;;;;;;10.60;1.10;;;;;;;;;;5074520;28;20246;-68
2023/01/31 13:49:19;;;;;;;0.20;0.20;;;;;;;;;;5085691;28;20210;-68
2023/01/31 13:51:47;;;;;;;0.20;0.20;;;;;;;;;;5074469;28;20664;-68
2023/01/31 13:54:16;;;;;;;1.07;0.93;;;;;;;;;;5085093;28;20244;-68
2023/01/31 13:56:48;;;;;;;0.20;0.20;;;;;;;;;;5074194;28;20248;-68
2023/01/31 13:59:18;;;;;;;0.70;0.70;;;;;;;;;;5085233;28;20265;-68
2023/01/31 14:01:47;;;;;;;0.20;0.20;;;;;;;;;;5074209;28;20249;-68
2023/01/31 14:04:22;;;;;;;0.20;0.20;;;;;;;;;;5085311;28;20479;-68
2023/01/31 14:07:22;;;;;;;1.30;0.93;;;;;;;;;;5073997;28;20245;-65
2023/01/31 14:10:07;;;;;;;0.20;0.20;;;;;;;;;;5085466;28;20262;-63
2023/01/31 14:12:36;;;;;;;0.20;0.20;;;;;;;;;;5057179;28;20207;-72
2023/01/31 14:15:10;;;;;;;0.20;0.20;;;;;;;;;;5085449;28;20207;-73
2023/01/31 14:17:55;;;;;;;0.23;0.23;;;;;;;;;;5056885;28;20391;-73
2023/01/31 14:20:26;;;;;;;0.20;0.20;;;;;;;;;;5074812;28;20272;-73
2023/01/31 14:23:07;;;;;;;0.20;0.20;;;;;;;;;;5084187;28;20234;-73
2023/01/31 14:25:41;;;;;;;0.20;0.20;;;;;;;;;;5073465;28;20309;-72
2023/01/31 14:28:11;;;;;;;0.20;0.20;;;;;;;;;;5083923;28;20213;-73
2023/01/31 14:30:41;;;;;;;0.20;0.20;;;;;;;;;;5074032;28;20306;-72
2023/01/31 14:33:14;;;;;;;0.50;0.50;;;;;;;;;;5084056;28;20406;-73
2023/01/31 14:35:59;;;;;;;0.30;0.30;;;;;;;;;;5074123;28;20448;-73
2023/01/31 14:38:35;;;;;;;0.47;0.47;;;;;;;;;;5084238;28;20205;-75
2023/01/31 14:41:04;;;;;;;2.10;0.77;;;;;;;;;;5073933;28;20255;-74
2023/01/31 14:43:41;;;;;;;0.40;0.40;;;;;;;;;;5084196;28;20230;-72
2023/01/31 14:46:16;;;;;;;0.20;0.20;;;;;;;;;;5073503;28;20254;-71
2023/01/31 14:49:01;;;;;;;0.20;0.20;;;;;;;;;;5083967;28;20202;-71
2023/01/31 14:51:32;;;;;;;0.20;0.20;;;;;;;;;;5073492;28;20236;-71
2023/01/31 14:54:15;;;;;;;0.63;0.63;;;;;;;;;;5084254;28;20376;-72
2023/01/31 14:56:50;;;;;;;0.20;0.20;;;;;;;;;;5072965;28;20248;-71
2023/01/31 14:59:26;;;;;;;0.20;0.20;;;;;;;;;;5083988;28;20239;-71
2023/01/31 15:01:53;;;;;;;0.20;0.20;;;;;;;;;;5073103;28;20271;-71
2023/01/31 15:04:21;;;;;;;0.20;0.20;;;;;;;;;;5084049;28;20296;-72